sensor_id;sensor_type;location;lat;lon;timestamp;temperature;humidity
37204;DHT22;23098;48.054;10.636;2023-02-28T00:00:10;-2.70;99.90
37204;DHT22;23098;48.054;10.636;2023-02-28T00:02:37;-2.70;99.90
37204;DHT22;23098;48.054;10.636;2023-02-28T00:05:03;-2.70;99.90
37204;DHT22;23098;48.054;10.636;2023-02-28T00:07:32;-2.70;99.90
37204;DHT22;23098;48.054;10.636;2023-02-28T00:09:58;-2.70;99.90
37204;DHT22;23098;48.054;10.636;2023-02-28T00:12:24;-2.70;99.90
37204;DHT22;23098;48.054;10.636;2023-02-28T00:14:51;-2.70;99.90
37204;DHT22;23098;48.054;10.636;2023-02-28T00:17:17;-2.70;99.90
37204;DHT22;23098;48.054;10.636;2023-02-28T00:19:50;-2.70;99.90
37204;DHT22;23098;48.054;10.636;2023-02-28T00:22:17;-2.70;99.90
37204;DHT22;23098;48.054;10.636;2023-02-28T00:24:43;-2.70;99.90
37204;DHT22;23098;48.054;10.636;2023-02-28T00:27:09;-2.70;99.90
37204;DHT22;23098;48.054;10.636;2023-02-28T00:29:34;-2.70;99.90
37204;DHT22;23098;48.054;10.636;2023-02-28T00:32:00;-2.70;99.90
37204;DHT22;23098;48.054;10.636;2023-02-28T00:34:26;-2.70;99.90
37204;DHT22;23098;48.054;10.636;2023-02-28T00:36:51;-2.80;99.90
37204;DHT22;23098;48.054;10.636;2023-02-28T00:39:17;-2.80;99.90
37204;DHT22;23098;48.054;10.636;2023-02-28T00:41:43;-2.80;99.90
37204;DHT22;23098;48.054;10.636;2023-02-28T00:44:09;-2.70;99.90
37204;DHT22;23098;48.054;10.636;2023-02-28T00:46:34;-2.80;99.90
37204;DHT22;23098;48.054;10.636;2023-02-28T00:49:00;-2.80;99.90
37204;DHT22;23098;48.054;10.636;2023-02-28T00:51:26;-2.80;99.90
37204;DHT22;23098;48.054;10.636;2023-02-28T00:53:51;-2.80;99.90
37204;DHT22;23098;48.054;10.636;2023-02-28T00:56:17;-2.70;99.90
37204;DHT22;23098;48.054;10.636;2023-02-28T00:58:42;-2.80;99.90
37204;DHT22;23098;48.054;10.636;2023-02-28T01:01:08;-2.80;99.90
37204;DHT22;23098;48.054;10.636;2023-02-28T01:03:34;-2.80;99.90
37204;DHT22;23098;48.054;10.636;2023-02-28T01:06:00;-2.80;99.90
37204;DHT22;23098;48.054;10.636;2023-02-28T01:08:26;-2.80;99.90
37204;DHT22;23098;48.054;10.636;2023-02-28T01:10:52;-2.80;99.90
37204;DHT22;23098;48.054;10.636;2023-02-28T01:13:18;-2.80;99.90
37204;DHT22;23098;48.054;10.636;2023-02-28T01:15:55;-2.90;99.90
37204;DHT22;23098;48.054;10.636;2023-02-28T01:18:22;-2.90;99.90
37204;DHT22;23098;48.054;10.636;2023-02-28T01:20:48;-2.90;99.90
37204;DHT22;23098;48.054;10.636;2023-02-28T01:23:14;-2.90;99.90
37204;DHT22;23098;48.054;10.636;2023-02-28T01:25:39;-2.90;99.90
37204;DHT22;23098;48.054;10.636;2023-02-28T01:28:05;-3.00;99.90
37204;DHT22;23098;48.054;10.636;2023-02-28T01:30:31;-2.90;99.90
37204;DHT22;23098;48.054;10.636;2023-02-28T01:32:57;-2.90;99.90
37204;DHT22;23098;48.054;10.636;2023-02-28T01:35:23;-2.90;99.90
37204;DHT22;23098;48.054;10.636;2023-02-28T01:37:48;-2.90;99.90
37204;DHT22;23098;48.054;10.636;2023-02-28T01:40:14;-2.90;99.90
37204;DHT22;23098;48.054;10.636;2023-02-28T01:42:39;-2.90;99.90
37204;DHT22;23098;48.054;10.636;2023-02-28T01:45:30;-2.90;99.90
37204;DHT22;23098;48.054;10.636;2023-02-28T01:48:00;-2.90;99.90
37204;DHT22;23098;48.054;10.636;2023-02-28T01:50:31;-2.90;99.90
37204;DHT22;23098;48.054;10.636;2023-02-28T01:53:02;-2.90;99.90
37204;DHT22;23098;48.054;10.636;2023-02-28T01:55:30;-2.90;99.90
37204;DHT22;23098;48.054;10.636;2023-02-28T01:57:58;-2.90;99.90
37204;DHT22;23098;48.054;10.636;2023-02-28T02:00:27;-2.90;99.90
37204;DHT22;23098;48.054;10.636;2023-02-28T02:02:57;-2.90;99.90
37204;DHT22;23098;48.054;10.636;2023-02-28T02:05:30;-2.90;99.90
37204;DHT22;23098;48.054;10.636;2023-02-28T02:08:06;-2.90;99.90
37204;DHT22;23098;48.054;10.636;2023-02-28T02:10:36;-2.90;99.90
37204;DHT22;23098;48.054;10.636;2023-02-28T02:16:19;-3.00;99.90
37204;DHT22;23098;48.054;10.636;2023-02-28T02:24:00;-3.00;99.90
37204;DHT22;23098;48.054;10.636;2023-02-28T02:29:37;-3.00;99.90
37204;DHT22;23098;48.054;10.636;2023-02-28T02:32:28;-3.10;99.90
37204;DHT22;23098;48.054;10.636;2023-02-28T02:41:07;-3.10;99.90
37204;DHT22;23098;48.054;10.636;2023-02-28T02:43:46;-3.20;99.90
37204;DHT22;23098;48.054;10.636;2023-02-28T02:46:21;-3.20;99.90
37204;DHT22;23098;48.054;10.636;2023-02-28T02:48:50;-3.20;99.90
37204;DHT22;23098;48.054;10.636;2023-02-28T02:51:19;-3.20;99.90
37204;DHT22;23098;48.054;10.636;2023-02-28T02:53:53;-3.30;99.90
37204;DHT22;23098;48.054;10.636;2023-02-28T02:56:28;-3.30;99.90
37204;DHT22;23098;48.054;10.636;2023-02-28T02:58:59;-3.30;99.90
37204;DHT22;23098;48.054;10.636;2023-02-28T03:01:29;-3.30;99.90
37204;DHT22;23098;48.054;10.636;2023-02-28T03:03:57;-3.30;99.90
37204;DHT22;23098;48.054;10.636;2023-02-28T03:06:24;-3.30;99.90
37204;DHT22;23098;48.054;10.636;2023-02-28T03:08:49;-3.40;99.90
37204;DHT22;23098;48.054;10.636;2023-02-28T03:11:15;-3.30;99.90
37204;DHT22;23098;48.054;10.636;2023-02-28T03:13:48;-3.40;99.90
37204;DHT22;23098;48.054;10.636;2023-02-28T03:26:53;-3.40;99.90
37204;DHT22;23098;48.054;10.636;2023-02-28T03:29:30;-3.40;99.90
37204;DHT22;23098;48.054;10.636;2023-02-28T03:32:14;-3.50;99.90
37204;DHT22;23098;48.054;10.636;2023-02-28T03:35:11;-3.50;99.90
37204;DHT22;23098;48.054;10.636;2023-02-28T03:37:38;-3.60;99.90
37204;DHT22;23098;48.054;10.636;2023-02-28T03:40:09;-3.60;99.90
37204;DHT22;23098;48.054;10.636;2023-02-28T03:42:39;-3.70;99.90
37204;DHT22;23098;48.054;10.636;2023-02-28T03:45:33;-3.80;99.90
37204;DHT22;23098;48.054;10.636;2023-02-28T03:48:20;-3.80;99.90
37204;DHT22;23098;48.054;10.636;2023-02-28T03:50:49;-3.90;99.90
37204;DHT22;23098;48.054;10.636;2023-02-28T03:53:29;-3.90;99.90
37204;DHT22;23098;48.054;10.636;2023-02-28T03:56:16;-4.00;99.90
37204;DHT22;23098;48.054;10.636;2023-02-28T03:58:48;-4.00;99.90
37204;DHT22;23098;48.054;10.636;2023-02-28T04:01:26;-4.00;99.90
37204;DHT22;23098;48.054;10.636;2023-02-28T04:03:53;-4.00;99.90
37204;DHT22;23098;48.054;10.636;2023-02-28T04:06:21;-4.00;99.90
37204;DHT22;23098;48.054;10.636;2023-02-28T04:08:47;-4.00;99.90
37204;DHT22;23098;48.054;10.636;2023-02-28T04:11:32;-3.90;99.90
37204;DHT22;23098;48.054;10.636;2023-02-28T04:13:57;-3.90;99.90
37204;DHT22;23098;48.054;10.636;2023-02-28T04:16:23;-3.90;99.90
37204;DHT22;23098;48.054;10.636;2023-02-28T04:18:48;-3.90;99.90
37204;DHT22;23098;48.054;10.636;2023-02-28T04:21:14;-3.90;99.90
37204;DHT22;23098;48.054;10.636;2023-02-28T04:23:40;-3.90;99.90
37204;DHT22;23098;48.054;10.636;2023-02-28T04:26:05;-3.90;99.90
37204;DHT22;23098;48.054;10.636;2023-02-28T04:28:32;-3.80;99.90
37204;DHT22;23098;48.054;10.636;2023-02-28T04:31:00;-3.80;99.90
37204;DHT22;23098;48.054;10.636;2023-02-28T04:33:26;-3.80;99.90
37204;DHT22;23098;48.054;10.636;2023-02-28T04:36:03;-3.80;99.90
37204;DHT22;23098;48.054;10.636;2023-02-28T04:38:32;-3.80;99.90
37204;DHT22;23098;48.054;10.636;2023-02-28T04:40:59;-3.80;99.90
37204;DHT22;23098;48.054;10.636;2023-02-28T04:43:26;-3.80;99.90
37204;DHT22;23098;48.054;10.636;2023-02-28T04:45:52;-3.80;99.90
37204;DHT22;23098;48.054;10.636;2023-02-28T04:48:18;-3.80;99.90
37204;DHT22;23098;48.054;10.636;2023-02-28T04:50:43;-3.80;99.90
37204;DHT22;23098;48.054;10.636;2023-02-28T04:53:09;-3.70;99.90
37204;DHT22;23098;48.054;10.636;2023-02-28T04:55:34;-3.70;99.90
37204;DHT22;23098;48.054;10.636;2023-02-28T04:58:00;-3.70;99.90
37204;DHT22;23098;48.054;10.636;2023-02-28T05:00:25;-3.70;99.90
37204;DHT22;23098;48.054;10.636;2023-02-28T05:02:51;-3.70;99.90
37204;DHT22;23098;48.054;10.636;2023-02-28T05:05:16;-3.70;99.90
37204;DHT22;23098;48.054;10.636;2023-02-28T05:07:44;-3.60;99.90
37204;DHT22;23098;48.054;10.636;2023-02-28T05:10:10;-3.60;99.90
37204;DHT22;23098;48.054;10.636;2023-02-28T05:12:36;-3.60;99.90
37204;DHT22;23098;48.054;10.636;2023-02-28T05:15:02;-3.60;99.90
37204;DHT22;23098;48.054;10.636;2023-02-28T05:17:28;-3.60;99.90
37204;DHT22;23098;48.054;10.636;2023-02-28T05:19:53;-3.60;99.90
37204;DHT22;23098;48.054;10.636;2023-02-28T05:22:19;-3.60;99.90
37204;DHT22;23098;48.054;10.636;2023-02-28T05:24:46;-3.50;99.90
37204;DHT22;23098;48.054;10.636;2023-02-28T05:27:11;-3.50;99.90
37204;DHT22;23098;48.054;10.636;2023-02-28T05:29:37;-3.50;99.90
37204;DHT22;23098;48.054;10.636;2023-02-28T05:32:09;-3.50;99.90
37204;DHT22;23098;48.054;10.636;2023-02-28T05:34:39;-3.50;99.90
37204;DHT22;23098;48.054;10.636;2023-02-28T05:37:05;-3.50;99.90
37204;DHT22;23098;48.054;10.636;2023-02-28T05:39:32;-3.40;99.90
37204;DHT22;23098;48.054;10.636;2023-02-28T05:41:57;-3.40;99.90
37204;DHT22;23098;48.054;10.636;2023-02-28T05:44:23;-3.40;99.90
37204;DHT22;23098;48.054;10.636;2023-02-28T05:46:49;-3.40;99.90
37204;DHT22;23098;48.054;10.636;2023-02-28T05:49:15;-3.40;99.90
37204;DHT22;23098;48.054;10.636;2023-02-28T05:51:40;-3.40;99.90
37204;DHT22;23098;48.054;10.636;2023-02-28T05:54:06;-3.40;99.90
37204;DHT22;23098;48.054;10.636;2023-02-28T05:56:32;-3.40;99.90
37204;DHT22;23098;48.054;10.636;2023-02-28T05:59:00;-3.40;99.90
37204;DHT22;23098;48.054;10.636;2023-02-28T06:01:46;-3.40;99.90
37204;DHT22;23098;48.054;10.636;2023-02-28T06:04:14;-3.40;99.90
37204;DHT22;23098;48.054;10.636;2023-02-28T06:06:44;-3.30;99.90
37204;DHT22;23098;48.054;10.636;2023-02-28T06:09:10;-3.30;99.90
37204;DHT22;23098;48.054;10.636;2023-02-28T06:11:35;-3.30;99.90
37204;DHT22;23098;48.054;10.636;2023-02-28T06:14:02;-3.30;99.90
37204;DHT22;23098;48.054;10.636;2023-02-28T06:16:28;-3.30;99.90
37204;DHT22;23098;48.054;10.636;2023-02-28T06:18:56;-3.30;99.90
37204;DHT22;23098;48.054;10.636;2023-02-28T06:21:22;-3.30;99.90
37204;DHT22;23098;48.054;10.636;2023-02-28T06:23:47;-3.30;99.90
37204;DHT22;23098;48.054;10.636;2023-02-28T06:26:13;-3.20;99.90
37204;DHT22;23098;48.054;10.636;2023-02-28T06:28:38;-3.20;99.90
37204;DHT22;23098;48.054;10.636;2023-02-28T06:31:09;-3.20;99.90
37204;DHT22;23098;48.054;10.636;2023-02-28T06:33:36;-3.20;99.90
37204;DHT22;23098;48.054;10.636;2023-02-28T06:36:02;-3.20;99.90
37204;DHT22;23098;48.054;10.636;2023-02-28T06:38:28;-3.10;99.90
37204;DHT22;23098;48.054;10.636;2023-02-28T06:40:56;-3.10;99.90
37204;DHT22;23098;48.054;10.636;2023-02-28T06:43:22;-3.10;99.90
37204;DHT22;23098;48.054;10.636;2023-02-28T06:45:48;-3.10;99.90
37204;DHT22;23098;48.054;10.636;2023-02-28T06:48:14;-3.10;99.90
37204;DHT22;23098;48.054;10.636;2023-02-28T06:50:39;-3.10;99.90
37204;DHT22;23098;48.054;10.636;2023-02-28T06:53:05;-3.10;99.90
37204;DHT22;23098;48.054;10.636;2023-02-28T06:55:31;-3.10;99.90
37204;DHT22;23098;48.054;10.636;2023-02-28T06:57:57;-3.10;99.90
37204;DHT22;23098;48.054;10.636;2023-02-28T07:00:23;-3.10;99.90
37204;DHT22;23098;48.054;10.636;2023-02-28T07:02:48;-3.10;99.90
37204;DHT22;23098;48.054;10.636;2023-02-28T07:05:14;-3.10;99.90
37204;DHT22;23098;48.054;10.636;2023-02-28T07:07:40;-3.00;99.90
37204;DHT22;23098;48.054;10.636;2023-02-28T07:10:10;-3.00;99.90
37204;DHT22;23098;48.054;10.636;2023-02-28T07:12:37;-3.00;99.90
37204;DHT22;23098;48.054;10.636;2023-02-28T07:15:03;-3.00;99.90
37204;DHT22;23098;48.054;10.636;2023-02-28T07:17:29;-3.00;99.90
37204;DHT22;23098;48.054;10.636;2023-02-28T07:19:55;-2.90;99.90
37204;DHT22;23098;48.054;10.636;2023-02-28T07:22:20;-2.90;99.90
37204;DHT22;23098;48.054;10.636;2023-02-28T07:24:48;-2.90;99.90
37204;DHT22;23098;48.054;10.636;2023-02-28T07:27:13;-2.90;99.90
37204;DHT22;23098;48.054;10.636;2023-02-28T07:29:51;-2.90;99.90
37204;DHT22;23098;48.054;10.636;2023-02-28T07:32:20;-2.90;99.90
37204;DHT22;23098;48.054;10.636;2023-02-28T07:34:45;-2.90;99.90
37204;DHT22;23098;48.054;10.636;2023-02-28T07:37:11;-2.90;99.90
37204;DHT22;23098;48.054;10.636;2023-02-28T07:39:37;-2.80;99.90
37204;DHT22;23098;48.054;10.636;2023-02-28T07:42:05;-2.80;99.90
37204;DHT22;23098;48.054;10.636;2023-02-28T07:44:31;-2.70;99.90
37204;DHT22;23098;48.054;10.636;2023-02-28T07:46:57;-2.70;99.90
37204;DHT22;23098;48.054;10.636;2023-02-28T07:49:23;-2.70;99.90
37204;DHT22;23098;48.054;10.636;2023-02-28T07:51:48;-2.70;99.90
37204;DHT22;23098;48.054;10.636;2023-02-28T07:54:14;-2.70;99.90
37204;DHT22;23098;48.054;10.636;2023-02-28T07:56:41;-2.70;99.90
37204;DHT22;23098;48.054;10.636;2023-02-28T07:59:06;-2.70;99.90
37204;DHT22;23098;48.054;10.636;2023-02-28T08:01:33;-2.60;99.90
37204;DHT22;23098;48.054;10.636;2023-02-28T08:03:59;-2.70;99.90
37204;DHT22;23098;48.054;10.636;2023-02-28T08:06:25;-2.70;99.90
37204;DHT22;23098;48.054;10.636;2023-02-28T08:08:52;-2.60;99.90
37204;DHT22;23098;48.054;10.636;2023-02-28T08:11:18;-2.70;99.90
37204;DHT22;23098;48.054;10.636;2023-02-28T08:13:45;-2.70;99.90
37204;DHT22;23098;48.054;10.636;2023-02-28T08:16:13;-2.50;99.90
37204;DHT22;23098;48.054;10.636;2023-02-28T08:18:48;-2.50;99.90
37204;DHT22;23098;48.054;10.636;2023-02-28T08:21:13;-2.60;99.90
37204;DHT22;23098;48.054;10.636;2023-02-28T08:23:39;-2.50;99.90
37204;DHT22;23098;48.054;10.636;2023-02-28T08:26:05;-2.50;99.90
37204;DHT22;23098;48.054;10.636;2023-02-28T08:28:30;-2.40;99.90
37204;DHT22;23098;48.054;10.636;2023-02-28T08:30:56;-2.50;99.90
37204;DHT22;23098;48.054;10.636;2023-02-28T08:33:22;-2.50;99.90
37204;DHT22;23098;48.054;10.636;2023-02-28T08:35:48;-2.50;99.90
37204;DHT22;23098;48.054;10.636;2023-02-28T08:38:13;-2.40;99.90
37204;DHT22;23098;48.054;10.636;2023-02-28T08:40:39;-2.40;99.90
37204;DHT22;23098;48.054;10.636;2023-02-28T08:43:05;-2.30;99.90
37204;DHT22;23098;48.054;10.636;2023-02-28T08:45:31;-2.30;99.90
37204;DHT22;23098;48.054;10.636;2023-02-28T08:47:56;-2.30;99.90
37204;DHT22;23098;48.054;10.636;2023-02-28T08:50:22;-2.40;99.90
37204;DHT22;23098;48.054;10.636;2023-02-28T08:52:48;-2.30;99.90
37204;DHT22;23098;48.054;10.636;2023-02-28T08:55:13;-2.30;99.90
37204;DHT22;23098;48.054;10.636;2023-02-28T08:57:39;-2.30;99.90
37204;DHT22;23098;48.054;10.636;2023-02-28T09:00:05;-2.30;99.90
37204;DHT22;23098;48.054;10.636;2023-02-28T09:02:31;-2.30;99.90
37204;DHT22;23098;48.054;10.636;2023-02-28T09:04:57;-2.20;99.90
37204;DHT22;23098;48.054;10.636;2023-02-28T09:07:23;-2.20;99.90
37204;DHT22;23098;48.054;10.636;2023-02-28T09:09:49;-2.20;99.90
37204;DHT22;23098;48.054;10.636;2023-02-28T09:12:25;-2.10;99.90
37204;DHT22;23098;48.054;10.636;2023-02-28T09:14:51;-2.00;99.90
37204;DHT22;23098;48.054;10.636;2023-02-28T09:17:17;-1.90;99.90
37204;DHT22;23098;48.054;10.636;2023-02-28T09:19:43;-2.00;99.90
37204;DHT22;23098;48.054;10.636;2023-02-28T09:22:09;-2.10;99.90
37204;DHT22;23098;48.054;10.636;2023-02-28T09:24:36;-2.00;99.90
37204;DHT22;23098;48.054;10.636;2023-02-28T09:27:02;-2.00;99.90
37204;DHT22;23098;48.054;10.636;2023-02-28T09:29:28;-1.90;99.90
37204;DHT22;23098;48.054;10.636;2023-02-28T09:31:53;-1.90;99.90
37204;DHT22;23098;48.054;10.636;2023-02-28T09:34:19;-1.90;99.90
37204;DHT22;23098;48.054;10.636;2023-02-28T09:36:45;-1.80;99.90
37204;DHT22;23098;48.054;10.636;2023-02-28T09:39:10;-1.80;99.90
37204;DHT22;23098;48.054;10.636;2023-02-28T09:41:42;-1.60;99.90
37204;DHT22;23098;48.054;10.636;2023-02-28T09:44:36;-1.70;99.90
37204;DHT22;23098;48.054;10.636;2023-02-28T09:47:33;-1.80;99.90
37204;DHT22;23098;48.054;10.636;2023-02-28T09:50:11;-1.90;99.90
37204;DHT22;23098;48.054;10.636;2023-02-28T09:52:40;-1.70;99.90
37204;DHT22;23098;48.054;10.636;2023-02-28T09:55:36;-1.60;99.90
37204;DHT22;23098;48.054;10.636;2023-02-28T09:58:04;-1.70;99.90
37204;DHT22;23098;48.054;10.636;2023-02-28T10:00:36;-1.70;99.90
37204;DHT22;23098;48.054;10.636;2023-02-28T10:03:43;-1.70;99.90
37204;DHT22;23098;48.054;10.636;2023-02-28T10:06:17;-1.60;99.90
37204;DHT22;23098;48.054;10.636;2023-02-28T10:08:55;-1.60;99.90
37204;DHT22;23098;48.054;10.636;2023-02-28T10:11:23;-1.50;99.90
37204;DHT22;23098;48.054;10.636;2023-02-28T10:13:57;-1.50;99.90
37204;DHT22;23098;48.054;10.636;2023-02-28T10:16:35;-1.70;99.90
37204;DHT22;23098;48.054;10.636;2023-02-28T10:19:20;-1.50;99.90
37204;DHT22;23098;48.054;10.636;2023-02-28T10:21:58;-1.60;99.90
37204;DHT22;23098;48.054;10.636;2023-02-28T10:27:00;-1.50;99.90
37204;DHT22;23098;48.054;10.636;2023-02-28T10:29:27;-1.50;99.90
37204;DHT22;23098;48.054;10.636;2023-02-28T10:31:52;-1.50;99.90
37204;DHT22;23098;48.054;10.636;2023-02-28T10:34:18;-1.50;99.90
37204;DHT22;23098;48.054;10.636;2023-02-28T10:36:44;-1.50;99.90
37204;DHT22;23098;48.054;10.636;2023-02-28T10:39:45;-1.40;99.90
37204;DHT22;23098;48.054;10.636;2023-02-28T10:42:23;-1.40;99.90
37204;DHT22;23098;48.054;10.636;2023-02-28T10:45:06;-1.50;99.90
37204;DHT22;23098;48.054;10.636;2023-02-28T10:47:42;-1.40;99.90
37204;DHT22;23098;48.054;10.636;2023-02-28T10:52:53;-1.40;99.90
37204;DHT22;23098;48.054;10.636;2023-02-28T10:55:24;-1.30;99.90
37204;DHT22;23098;48.054;10.636;2023-02-28T10:57:52;-1.30;99.90
37204;DHT22;23098;48.054;10.636;2023-02-28T11:00:20;-1.30;99.90
37204;DHT22;23098;48.054;10.636;2023-02-28T11:02:47;-1.10;99.90
37204;DHT22;23098;48.054;10.636;2023-02-28T11:05:30;-1.20;99.90
37204;DHT22;23098;48.054;10.636;2023-02-28T11:08:03;-1.30;99.90
37204;DHT22;23098;48.054;10.636;2023-02-28T11:10:31;-1.40;99.90
37204;DHT22;23098;48.054;10.636;2023-02-28T11:13:00;-1.30;99.90
37204;DHT22;23098;48.054;10.636;2023-02-28T11:15:28;-1.30;99.90
37204;DHT22;23098;48.054;10.636;2023-02-28T11:18:08;-1.30;99.90
37204;DHT22;23098;48.054;10.636;2023-02-28T11:20:40;-1.20;99.90
37204;DHT22;23098;48.054;10.636;2023-02-28T11:23:12;-1.10;99.90
37204;DHT22;23098;48.054;10.636;2023-02-28T11:25:38;-1.00;99.90
37204;DHT22;23098;48.054;10.636;2023-02-28T11:28:06;-1.00;99.90
37204;DHT22;23098;48.054;10.636;2023-02-28T11:31:02;-0.90;99.90
37204;DHT22;23098;48.054;10.636;2023-02-28T11:33:48;-1.00;99.90
37204;DHT22;23098;48.054;10.636;2023-02-28T11:36:21;-1.00;99.90
37204;DHT22;23098;48.054;10.636;2023-02-28T11:38:50;-1.10;99.90
37204;DHT22;23098;48.054;10.636;2023-02-28T11:41:31;-0.80;99.90
37204;DHT22;23098;48.054;10.636;2023-02-28T11:44:12;-1.10;99.90
37204;DHT22;23098;48.054;10.636;2023-02-28T11:49:30;-0.90;99.90
37204;DHT22;23098;48.054;10.636;2023-02-28T11:52:25;-1.20;99.90
37204;DHT22;23098;48.054;10.636;2023-02-28T11:55:07;-0.80;99.90
37204;DHT22;23098;48.054;10.636;2023-02-28T12:03:51;-0.70;99.90
37204;DHT22;23098;48.054;10.636;2023-02-28T12:06:45;-0.60;99.90
37204;DHT22;23098;48.054;10.636;2023-02-28T12:12:23;-1.10;99.90
37204;DHT22;23098;48.054;10.636;2023-02-28T12:20:33;-0.50;99.90
37204;DHT22;23098;48.054;10.636;2023-02-28T12:26:07;-0.70;99.90
37204;DHT22;23098;48.054;10.636;2023-02-28T12:28:44;-0.40;99.90
37204;DHT22;23098;48.054;10.636;2023-02-28T12:31:18;-0.50;99.90
37204;DHT22;23098;48.054;10.636;2023-02-28T12:33:50;-0.40;99.90
37204;DHT22;23098;48.054;10.636;2023-02-28T12:36:18;-0.50;99.90
37204;DHT22;23098;48.054;10.636;2023-02-28T12:39:07;-0.40;99.90
37204;DHT22;23098;48.054;10.636;2023-02-28T12:41:39;-0.40;99.90
37204;DHT22;23098;48.054;10.636;2023-02-28T12:44:18;-0.50;99.90
37204;DHT22;23098;48.054;10.636;2023-02-28T12:46:49;-0.50;99.90
37204;DHT22;23098;48.054;10.636;2023-02-28T12:49:19;-0.50;99.90
37204;DHT22;23098;48.054;10.636;2023-02-28T12:51:47;-0.50;99.90
37204;DHT22;23098;48.054;10.636;2023-02-28T12:56:59;-0.30;99.90
37204;DHT22;23098;48.054;10.636;2023-02-28T12:59:49;-0.20;99.90
37204;DHT22;23098;48.054;10.636;2023-02-28T13:02:31;-0.20;99.90
37204;DHT22;23098;48.054;10.636;2023-02-28T13:11:01;0.10;99.90
37204;DHT22;23098;48.054;10.636;2023-02-28T13:13:29;0.20;99.90
37204;DHT22;23098;48.054;10.636;2023-02-28T13:18:38;0.50;99.90
37204;DHT22;23098;48.054;10.636;2023-02-28T13:21:07;0.40;99.90
37204;DHT22;23098;48.054;10.636;2023-02-28T13:26:16;1.00;99.90
37204;DHT22;23098;48.054;10.636;2023-02-28T13:31:14;0.90;99.90
37204;DHT22;23098;48.054;10.636;2023-02-28T13:41:49;1.30;99.90
37204;DHT22;23098;48.054;10.636;2023-02-28T13:44:23;1.20;99.90
37204;DHT22;23098;48.054;10.636;2023-02-28T13:49:35;1.50;99.90
37204;DHT22;23098;48.054;10.636;2023-02-28T13:57:55;1.80;99.90
37204;DHT22;23098;48.054;10.636;2023-02-28T14:09:28;1.50;99.90
37204;DHT22;23098;48.054;10.636;2023-02-28T14:11:54;1.20;99.90
37204;DHT22;23098;48.054;10.636;2023-02-28T14:17:14;1.40;99.90
37204;DHT22;23098;48.054;10.636;2023-02-28T14:19:41;1.40;99.90
37204;DHT22;23098;48.054;10.636;2023-02-28T14:25:18;1.50;99.90
37204;DHT22;23098;48.054;10.636;2023-02-28T14:36:20;1.40;99.90
37204;DHT22;23098;48.054;10.636;2023-02-28T14:38:50;1.60;99.90
37204;DHT22;23098;48.054;10.636;2023-02-28T14:41:35;1.60;99.90
37204;DHT22;23098;48.054;10.636;2023-02-28T14:44:13;1.60;99.90
37204;DHT22;23098;48.054;10.636;2023-02-28T14:46:40;1.60;99.90
37204;DHT22;23098;48.054;10.636;2023-02-28T14:49:15;1.40;99.90
37204;DHT22;23098;48.054;10.636;2023-02-28T14:51:41;1.60;99.90
37204;DHT22;23098;48.054;10.636;2023-02-28T14:54:12;1.60;99.90
37204;DHT22;23098;48.054;10.636;2023-02-28T14:56:39;1.50;99.90
37204;DHT22;23098;48.054;10.636;2023-02-28T14:59:23;1.40;99.90
37204;DHT22;23098;48.054;10.636;2023-02-28T15:01:49;1.50;99.90
37204;DHT22;23098;48.054;10.636;2023-02-28T15:04:22;1.60;99.90
37204;DHT22;23098;48.054;10.636;2023-02-28T15:07:09;1.50;99.90
37204;DHT22;23098;48.054;10.636;2023-02-28T15:09:35;1.60;99.90
37204;DHT22;23098;48.054;10.636;2023-02-28T15:12:01;1.60;99.90
37204;DHT22;23098;48.054;10.636;2023-02-28T15:14:27;1.70;99.90
37204;DHT22;23098;48.054;10.636;2023-02-28T15:16:59;1.60;99.90
37204;DHT22;23098;48.054;10.636;2023-02-28T15:19:32;1.60;99.90
37204;DHT22;23098;48.054;10.636;2023-02-28T15:22:03;1.60;99.90
37204;DHT22;23098;48.054;10.636;2023-02-28T15:24:35;1.50;99.90
37204;DHT22;23098;48.054;10.636;2023-02-28T15:27:11;1.60;99.90
37204;DHT22;23098;48.054;10.636;2023-02-28T15:29:45;1.50;99.90
37204;DHT22;23098;48.054;10.636;2023-02-28T15:32:34;1.60;99.90
37204;DHT22;23098;48.054;10.636;2023-02-28T15:38:17;1.70;99.90
37204;DHT22;23098;48.054;10.636;2023-02-28T15:40:45;1.70;99.90
37204;DHT22;23098;48.054;10.636;2023-02-28T15:43:18;1.70;99.90
37204;DHT22;23098;48.054;10.636;2023-02-28T15:45:46;1.60;99.90
37204;DHT22;23098;48.054;10.636;2023-02-28T15:48:20;1.70;99.90
37204;DHT22;23098;48.054;10.636;2023-02-28T15:50:52;1.60;99.90
37204;DHT22;23098;48.054;10.636;2023-02-28T15:53:30;1.50;99.90
37204;DHT22;23098;48.054;10.636;2023-02-28T15:56:07;1.40;99.90
37204;DHT22;23098;48.054;10.636;2023-02-28T15:58:38;1.40;99.90
37204;DHT22;23098;48.054;10.636;2023-02-28T16:01:08;1.40;99.90
37204;DHT22;23098;48.054;10.636;2023-02-28T16:03:44;1.40;99.90
37204;DHT22;23098;48.054;10.636;2023-02-28T16:08:42;1.30;99.90
37204;DHT22;23098;48.054;10.636;2023-02-28T16:11:11;1.30;99.90
37204;DHT22;23098;48.054;10.636;2023-02-28T16:13:37;1.20;99.90
37204;DHT22;23098;48.054;10.636;2023-02-28T16:16:02;1.20;99.90
37204;DHT22;23098;48.054;10.636;2023-02-28T16:18:30;1.10;99.90
37204;DHT22;23098;48.054;10.636;2023-02-28T16:20:55;1.00;99.90
37204;DHT22;23098;48.054;10.636;2023-02-28T16:23:21;1.00;99.90
37204;DHT22;23098;48.054;10.636;2023-02-28T16:25:47;0.90;99.90
37204;DHT22;23098;48.054;10.636;2023-02-28T16:28:38;0.80;99.90
37204;DHT22;23098;48.054;10.636;2023-02-28T16:31:05;0.80;99.90
37204;DHT22;23098;48.054;10.636;2023-02-28T16:33:32;0.70;99.90
37204;DHT22;23098;48.054;10.636;2023-02-28T16:35:59;0.60;99.90
37204;DHT22;23098;48.054;10.636;2023-02-28T16:38:25;0.60;99.90
37204;DHT22;23098;48.054;10.636;2023-02-28T16:40:51;0.40;99.90
37204;DHT22;23098;48.054;10.636;2023-02-28T16:43:23;0.40;99.90
37204;DHT22;23098;48.054;10.636;2023-02-28T16:45:52;0.30;99.90
37204;DHT22;23098;48.054;10.636;2023-02-28T16:48:19;0.20;99.90
37204;DHT22;23098;48.054;10.636;2023-02-28T16:50:45;0.20;99.90
37204;DHT22;23098;48.054;10.636;2023-02-28T16:53:10;0.10;99.90
37204;DHT22;23098;48.054;10.636;2023-02-28T16:55:36;0.00;99.90
37204;DHT22;23098;48.054;10.636;2023-02-28T16:58:02;-0.10;99.90
37204;DHT22;23098;48.054;10.636;2023-02-28T17:00:30;-0.10;99.90
37204;DHT22;23098;48.054;10.636;2023-02-28T17:02:56;-0.20;99.90
37204;DHT22;23098;48.054;10.636;2023-02-28T17:05:22;-0.20;99.90
37204;DHT22;23098;48.054;10.636;2023-02-28T17:07:49;-0.30;99.90
37204;DHT22;23098;48.054;10.636;2023-02-28T17:10:16;-0.30;99.90
37204;DHT22;23098;48.054;10.636;2023-02-28T17:12:43;-0.40;99.90
37204;DHT22;23098;48.054;10.636;2023-02-28T17:15:13;-0.40;99.90
37204;DHT22;23098;48.054;10.636;2023-02-28T17:17:40;-0.50;99.90
37204;DHT22;23098;48.054;10.636;2023-02-28T17:20:06;-0.50;99.90
37204;DHT22;23098;48.054;10.636;2023-02-28T17:22:32;-0.50;99.90
37204;DHT22;23098;48.054;10.636;2023-02-28T17:24:58;-0.50;99.90
37204;DHT22;23098;48.054;10.636;2023-02-28T17:27:24;-0.60;99.90
37204;DHT22;23098;48.054;10.636;2023-02-28T17:29:50;-0.60;99.90